createdAt,value
2024-02-12T00:00:38.558Z,974.09
2024-02-12T00:01:38.625Z,973.98
2024-02-12T00:02:38.501Z,973.96
2024-02-12T00:03:38.456Z,973.98
2024-02-12T00:04:38.479Z,973.99
2024-02-12T00:05:38.564Z,974.10
2024-02-12T00:06:38.575Z,973.99
2024-02-12T00:07:38.434Z,974.02
2024-02-12T00:08:38.535Z,974.08
2024-02-12T00:09:38.455Z,974.05
2024-02-12T00:10:38.437Z,974.11
2024-02-12T00:11:38.591Z,974.07
2024-02-12T00:12:38.438Z,974.10
2024-02-12T00:13:38.380Z,974.09
2024-02-12T00:14:38.488Z,974.09
2024-02-12T00:15:38.396Z,974.11
2024-02-12T00:16:38.448Z,974.05
2024-02-12T00:17:38.464Z,974.09
2024-02-12T00:18:38.444Z,974.06
2024-02-12T00:19:38.376Z,974.18
2024-02-12T00:20:38.478Z,974.09
2024-02-12T00:21:38.342Z,974.11
2024-02-12T00:22:38.335Z,974.11
2024-02-12T00:23:38.338Z,974.07
2024-02-12T00:24:38.338Z,974.07
2024-02-12T00:25:38.314Z,974.08
2024-02-12T00:26:38.333Z,974.11
2024-02-12T00:27:38.282Z,974.15
2024-02-12T00:28:38.307Z,974.12
2024-02-12T00:29:38.321Z,974.07
2024-02-12T00:30:38.246Z,974.13
2024-02-12T00:31:38.264Z,974.14
2024-02-12T00:32:38.481Z,974.15
2024-02-12T00:33:38.439Z,974.18
2024-02-12T00:34:38.234Z,974.17
2024-02-12T00:35:38.237Z,974.17
2024-02-12T00:36:38.231Z,974.20
2024-02-12T00:37:38.230Z,974.13
2024-02-12T00:38:38.268Z,974.13
2024-02-12T00:39:38.246Z,974.15
2024-02-12T00:40:38.187Z,974.17
2024-02-12T00:41:38.252Z,974.21
2024-02-12T00:42:38.154Z,974.20
2024-02-12T00:43:38.197Z,974.15
2024-02-12T00:44:38.180Z,974.25
2024-02-12T00:45:38.155Z,974.22
2024-02-12T00:46:38.150Z,974.18
2024-02-12T00:47:38.702Z,974.22
2024-02-12T00:48:38.244Z,974.24
2024-02-12T00:49:38.114Z,974.23
2024-02-12T00:50:38.240Z,974.24
2024-02-12T00:51:38.124Z,974.22
2024-02-12T00:52:38.117Z,974.20
2024-02-12T00:53:38.106Z,974.25
2024-02-12T00:54:38.061Z,974.30
2024-02-12T00:55:38.053Z,974.29
2024-02-12T00:56:38.145Z,974.29
2024-02-12T00:57:38.083Z,974.34
2024-02-12T00:58:38.040Z,974.29
2024-02-12T00:59:38.071Z,974.29
2024-02-12T01:00:38.045Z,974.28
2024-02-12T01:01:38.035Z,974.28
2024-02-12T01:02:38.083Z,974.30
2024-02-12T01:03:38.049Z,974.31
2024-02-12T01:04:38.006Z,974.31
2024-02-12T01:05:38.115Z,974.31
2024-02-12T01:06:38.195Z,974.33
2024-02-12T01:07:37.984Z,974.29
2024-02-12T01:08:38.727Z,974.34
2024-02-12T01:09:37.942Z,974.42
2024-02-12T01:10:37.977Z,974.35
2024-02-12T01:11:38.006Z,974.32
2024-02-12T01:12:37.938Z,974.37
2024-02-12T01:13:37.916Z,974.42
2024-02-12T01:14:37.978Z,974.34
2024-02-12T01:15:37.985Z,974.31
2024-02-12T01:16:38.056Z,974.35
2024-02-12T01:17:38.383Z,974.39
2024-02-12T01:18:37.915Z,974.39
2024-02-12T01:19:37.907Z,974.36
2024-02-12T01:20:38.035Z,974.36
2024-02-12T01:21:37.878Z,974.41
2024-02-12T01:22:37.879Z,974.40
2024-02-12T01:23:37.933Z,974.37
2024-02-12T01:24:37.853Z,974.33
2024-02-12T01:25:37.934Z,974.36
2024-02-12T01:26:37.921Z,974.40
2024-02-12T01:27:37.818Z,974.36
2024-02-12T01:28:37.810Z,974.44
2024-02-12T01:29:37.873Z,974.42
2024-02-12T01:30:37.851Z,974.47
2024-02-12T01:31:37.834Z,974.42
2024-02-12T01:32:37.984Z,974.46
2024-02-12T01:33:37.800Z,974.47
2024-02-12T01:34:37.780Z,974.41
2024-02-12T01:35:37.860Z,974.48
2024-02-12T01:36:37.783Z,974.40
2024-02-12T01:37:37.749Z,974.44
2024-02-12T01:38:37.769Z,974.46
2024-02-12T01:39:37.795Z,974.46
2024-02-12T01:40:37.704Z,974.49
2024-02-12T01:41:37.796Z,974.46
2024-02-12T01:42:37.719Z,974.51
2024-02-12T01:43:37.691Z,974.46
2024-02-12T01:44:37.778Z,974.48
2024-02-12T01:45:37.707Z,974.52
2024-02-12T01:46:37.689Z,974.48
2024-02-12T01:47:37.750Z,974.51
2024-02-12T01:48:37.913Z,974.50
2024-02-12T01:49:37.816Z,974.52
2024-02-12T01:50:37.716Z,974.53
2024-02-12T01:51:37.660Z,974.52
2024-02-12T01:52:37.618Z,974.50
2024-02-12T01:53:37.720Z,974.51
2024-02-12T01:54:37.610Z,974.51
2024-02-12T01:55:37.644Z,974.49
2024-02-12T01:56:37.614Z,974.47
2024-02-12T01:57:37.593Z,974.48
2024-02-12T01:58:37.624Z,974.54
2024-02-12T01:59:37.627Z,974.55
2024-02-12T02:00:37.575Z,974.50
2024-02-12T02:01:37.570Z,974.60
2024-02-12T02:02:37.574Z,974.51
2024-02-12T02:03:37.721Z,974.55
2024-02-12T02:04:37.586Z,974.56
2024-02-12T02:05:37.641Z,974.56
2024-02-12T02:06:37.535Z,974.58
2024-02-12T02:07:37.505Z,974.61
2024-02-12T02:08:37.517Z,974.61
2024-02-12T02:09:37.474Z,974.58
2024-02-12T02:10:37.463Z,974.61
2024-02-12T02:11:37.491Z,974.63
2024-02-12T02:12:37.468Z,974.61
2024-02-12T02:13:37.468Z,974.57
2024-02-12T02:14:37.505Z,974.58
2024-02-12T02:15:37.469Z,974.57
2024-02-12T02:16:37.418Z,974.57
2024-02-12T02:17:37.661Z,974.58
2024-02-12T02:18:37.466Z,974.61
2024-02-12T02:19:37.395Z,974.64
2024-02-12T02:20:37.580Z,974.63
2024-02-12T02:21:37.392Z,974.62
2024-02-12T02:22:37.396Z,974.58
2024-02-12T02:23:37.469Z,974.62
2024-02-12T02:24:37.353Z,974.58
2024-02-12T02:25:37.346Z,974.67
2024-02-12T02:26:37.428Z,974.69
2024-02-12T02:27:37.360Z,974.63
2024-02-12T02:28:37.344Z,974.63
2024-02-12T02:29:37.348Z,974.65
2024-02-12T02:30:37.304Z,974.62
2024-02-12T02:31:37.313Z,974.61
2024-02-12T02:32:37.647Z,974.52
2024-02-12T02:33:37.342Z,974.53
2024-02-12T02:34:37.300Z,974.58
2024-02-12T02:35:37.303Z,974.59
2024-02-12T02:36:37.287Z,974.57
2024-02-12T02:37:37.244Z,974.52
2024-02-12T02:38:37.328Z,974.62
2024-02-12T02:39:37.234Z,974.54
2024-02-12T02:40:37.231Z,974.63
2024-02-12T02:41:37.297Z,974.62
2024-02-12T02:42:37.209Z,974.62
2024-02-12T02:43:37.205Z,974.64
2024-02-12T02:44:37.228Z,974.66
2024-02-12T02:45:38.226Z,974.71
2024-02-12T02:46:37.201Z,974.66
2024-02-12T02:47:37.379Z,974.72
2024-02-12T02:48:37.217Z,974.66
2024-02-12T02:49:37.197Z,974.70
2024-02-12T02:50:37.208Z,974.70
2024-02-12T02:51:37.151Z,974.71
2024-02-12T02:52:37.131Z,974.67
2024-02-12T02:53:37.173Z,974.71
2024-02-12T02:54:37.124Z,974.70
2024-02-12T02:55:37.140Z,974.67
2024-02-12T02:56:37.163Z,974.70
2024-02-12T02:57:37.090Z,974.73
2024-02-12T02:58:37.075Z,974.68
2024-02-12T02:59:38.166Z,974.69
2024-02-12T03:00:37.132Z,974.67
2024-02-12T03:01:37.053Z,974.78
2024-02-12T03:02:37.097Z,974.70
2024-02-12T03:03:37.087Z,974.72
2024-02-12T03:04:37.134Z,974.73
2024-02-12T03:05:37.091Z,974.77
2024-02-12T03:06:37.038Z,974.71
2024-02-12T03:07:37.005Z,974.79
2024-02-12T03:08:37.046Z,974.76
2024-02-12T03:09:37.017Z,974.76
2024-02-12T03:10:36.998Z,974.74
2024-02-12T03:11:37.026Z,974.73
2024-02-12T03:12:36.983Z,974.69
2024-02-12T03:13:36.966Z,974.71
2024-02-12T03:14:37.013Z,974.74
2024-02-12T03:15:37.081Z,974.82
2024-02-12T03:16:36.946Z,974.78
2024-02-12T03:17:37.014Z,974.79
2024-02-12T03:18:37.028Z,974.79
2024-02-12T03:19:36.982Z,974.79
2024-02-12T03:20:36.993Z,974.77
2024-02-12T03:21:36.909Z,974.82
2024-02-12T03:22:36.896Z,974.85
2024-02-12T03:23:37.027Z,974.84
2024-02-12T03:24:36.905Z,974.85
2024-02-12T03:25:36.878Z,974.81
2024-02-12T03:26:36.919Z,974.87
2024-02-12T03:27:36.861Z,974.83
2024-02-12T03:28:36.882Z,974.81
2024-02-12T03:29:36.931Z,974.91
2024-02-12T03:30:36.837Z,974.82
2024-02-12T03:31:36.831Z,974.80
2024-02-12T03:32:36.896Z,974.83
2024-02-12T03:33:36.837Z,974.85
2024-02-12T03:34:36.875Z,974.87
2024-02-12T03:35:36.933Z,974.94
2024-02-12T03:36:36.801Z,974.94
2024-02-12T03:37:36.785Z,974.97
2024-02-12T03:38:36.816Z,974.94
2024-02-12T03:39:36.772Z,974.97
2024-02-12T03:40:36.762Z,974.98
2024-02-12T03:41:36.825Z,975.04
2024-02-12T03:42:36.768Z,975.04
2024-02-12T03:43:36.759Z,975.07
2024-02-12T03:44:36.791Z,975.04
2024-02-12T03:45:36.728Z,975.03
2024-02-12T03:46:36.725Z,975.05
2024-02-12T03:47:36.816Z,975.04
2024-02-12T03:48:36.741Z,975.02
2024-02-12T03:49:36.701Z,975.00
2024-02-12T03:50:36.864Z,975.05
2024-02-12T03:51:36.679Z,975.05
2024-02-12T03:52:36.695Z,975.11
2024-02-12T03:53:36.790Z,975.12
2024-02-12T03:55:36.721Z,975.03
2024-02-12T03:56:36.676Z,975.02
2024-02-12T03:57:36.733Z,975.12
2024-02-12T03:58:36.632Z,975.07
2024-02-12T03:59:36.638Z,975.18
2024-02-12T04:00:36.656Z,975.22
2024-02-12T04:01:36.677Z,975.23
2024-02-12T04:02:36.622Z,975.30
2024-02-12T04:03:36.579Z,975.27
2024-02-12T04:04:36.605Z,975.22
2024-02-12T04:05:36.665Z,975.21
2024-02-12T04:06:36.594Z,975.25
2024-02-12T04:07:36.549Z,975.27
2024-02-12T04:08:37.572Z,975.30
2024-02-12T04:09:36.537Z,975.28
2024-02-12T04:10:36.539Z,975.22
2024-02-12T04:11:36.553Z,975.26
2024-02-12T04:12:36.512Z,975.25
2024-02-12T04:13:36.517Z,975.27
2024-02-12T04:14:36.540Z,975.33
2024-02-12T04:15:36.495Z,975.31
2024-02-12T04:16:36.514Z,975.35
2024-02-12T04:17:36.531Z,975.34
2024-02-12T04:18:36.516Z,975.32
2024-02-12T04:19:36.462Z,975.33
2024-02-12T04:20:36.505Z,975.42
2024-02-12T04:21:36.470Z,975.35
2024-02-12T04:22:36.470Z,975.42
2024-02-12T04:23:36.443Z,975.43
2024-02-12T04:24:36.426Z,975.44
2024-02-12T04:25:36.442Z,975.44
2024-02-12T04:26:36.475Z,975.44
2024-02-12T04:27:36.401Z,975.43
2024-02-12T04:28:36.391Z,975.47
2024-02-12T04:29:36.422Z,975.50
2024-02-12T04:30:36.408Z,975.42
2024-02-12T04:31:36.388Z,975.47
2024-02-12T04:32:36.498Z,975.49
2024-02-12T04:33:36.458Z,975.52
2024-02-12T04:34:36.480Z,975.50
2024-02-12T04:35:36.445Z,975.54
2024-02-12T04:36:36.328Z,975.55
2024-02-12T04:37:36.330Z,975.55
2024-02-12T04:38:36.458Z,975.60
2024-02-12T04:39:36.346Z,975.55
2024-02-12T04:40:36.313Z,975.59
2024-02-12T04:41:36.400Z,975.61
2024-02-12T04:42:36.295Z,975.65
2024-02-12T04:43:36.285Z,975.68
2024-02-12T04:44:36.362Z,975.60
2024-02-12T04:45:36.261Z,975.61
2024-02-12T04:46:36.249Z,975.68
2024-02-12T04:47:36.335Z,975.62
2024-02-12T04:48:36.344Z,975.70
2024-02-12T04:49:36.319Z,975.64
2024-02-12T04:50:36.308Z,975.66
2024-02-12T04:51:36.236Z,975.74
2024-02-12T04:52:36.203Z,975.74
2024-02-12T04:53:36.289Z,975.67
2024-02-12T04:54:36.220Z,975.70
2024-02-12T04:55:36.185Z,975.73
2024-02-12T04:56:36.330Z,975.75
2024-02-12T04:57:36.188Z,975.73
2024-02-12T04:58:36.182Z,975.77
2024-02-12T04:59:36.244Z,975.75
2024-02-12T05:00:36.192Z,975.78
2024-02-12T05:01:36.136Z,975.84
2024-02-12T05:02:36.165Z,975.84
2024-02-12T05:03:36.198Z,975.78
2024-02-12T05:04:36.160Z,975.82
2024-02-12T05:05:36.143Z,975.87
2024-02-12T05:06:36.100Z,975.83
2024-02-12T05:07:36.141Z,975.86
2024-02-12T05:08:36.330Z,975.91
2024-02-12T05:09:36.088Z,975.82
2024-02-12T05:10:36.072Z,975.89
2024-02-12T05:11:36.140Z,975.91
2024-02-12T05:12:36.077Z,975.91
2024-02-12T05:13:36.089Z,975.89
2024-02-12T05:14:36.207Z,975.84
2024-02-12T05:15:36.032Z,975.85
2024-02-12T05:16:36.518Z,975.92
2024-02-12T05:17:36.081Z,975.92
2024-02-12T05:18:36.174Z,975.92
2024-02-12T05:19:36.007Z,975.95
2024-02-12T05:20:36.005Z,975.92
2024-02-12T05:21:36.015Z,975.94
2024-02-12T05:22:36.237Z,975.97
2024-02-12T05:23:36.045Z,975.88
2024-02-12T05:24:36.014Z,975.92
2024-02-12T05:25:35.965Z,975.98
2024-02-12T05:26:36.036Z,975.93
2024-02-12T05:27:35.953Z,975.89
2024-02-12T05:28:35.933Z,975.97
2024-02-12T05:29:36.010Z,975.95
2024-02-12T05:30:35.925Z,975.91
2024-02-12T05:31:35.937Z,975.86
2024-02-12T05:32:35.957Z,975.93
2024-02-12T05:33:35.939Z,975.88
2024-02-12T05:34:35.901Z,975.91
2024-02-12T05:35:35.891Z,975.91
2024-02-12T05:36:35.886Z,975.87
2024-02-12T05:37:35.855Z,975.92
2024-02-12T05:38:35.920Z,975.91
2024-02-12T05:39:35.842Z,975.87
2024-02-12T05:40:35.840Z,975.88
2024-02-12T05:41:35.928Z,975.89
2024-02-12T05:42:35.828Z,975.94
2024-02-12T05:43:35.815Z,975.94
2024-02-12T05:44:35.823Z,975.91
2024-02-12T05:45:35.811Z,975.92
2024-02-12T05:46:35.819Z,975.96
2024-02-12T05:47:35.925Z,976.00
2024-02-12T05:48:35.827Z,975.97
2024-02-12T05:49:35.877Z,975.94
2024-02-12T05:50:35.855Z,976.07
2024-02-12T05:51:35.784Z,975.96
2024-02-12T05:52:35.768Z,976.06
2024-02-12T05:53:35.850Z,976.08
2024-02-12T05:54:35.740Z,976.07
2024-02-12T05:55:35.762Z,976.09
2024-02-12T05:56:35.745Z,976.09
2024-02-12T05:57:35.707Z,976.10
2024-02-12T05:58:35.711Z,976.13
2024-02-12T05:59:35.835Z,976.10
2024-02-12T06:00:35.719Z,976.15
2024-02-12T06:01:35.742Z,976.13
2024-02-12T06:02:35.725Z,976.16
2024-02-12T06:03:35.697Z,976.09
2024-02-12T06:04:35.683Z,976.14
2024-02-12T06:05:35.787Z,976.13
2024-02-12T06:06:35.819Z,976.20
2024-02-12T06:07:35.700Z,976.16
2024-02-12T06:08:35.666Z,976.16
2024-02-12T06:09:35.665Z,976.16
2024-02-12T06:10:35.608Z,976.22
2024-02-12T06:11:35.646Z,976.16
2024-02-12T06:12:35.595Z,976.17
2024-02-12T06:13:35.583Z,976.22
2024-02-12T06:14:35.642Z,976.23
2024-02-12T06:15:35.579Z,976.26
2024-02-12T06:16:35.557Z,976.27
2024-02-12T06:17:35.596Z,976.31
2024-02-12T06:18:35.595Z,976.28
2024-02-12T06:19:35.569Z,976.32
2024-02-12T06:20:35.634Z,976.32
2024-02-12T06:21:35.528Z,976.30
2024-02-12T06:22:35.519Z,976.33
2024-02-12T06:23:35.636Z,976.38
2024-02-12T06:24:35.503Z,976.36
2024-02-12T06:25:35.500Z,976.34
2024-02-12T06:26:35.613Z,976.40
2024-02-12T06:27:35.477Z,976.47
2024-02-12T06:28:35.498Z,976.46
2024-02-12T06:29:35.483Z,976.43
2024-02-12T06:30:35.452Z,976.45
2024-02-12T06:31:35.449Z,976.50
2024-02-12T06:32:35.571Z,976.56
2024-02-12T06:33:35.512Z,976.57
2024-02-12T06:34:35.484Z,976.65
2024-02-12T06:35:35.463Z,976.66
2024-02-12T06:36:35.409Z,976.64
2024-02-12T06:37:35.453Z,976.62
2024-02-12T06:38:35.448Z,976.66
2024-02-12T06:39:35.383Z,976.69
2024-02-12T06:40:35.385Z,976.77
2024-02-12T06:41:35.463Z,976.75
2024-02-12T06:42:35.414Z,976.77
2024-02-12T06:43:35.355Z,976.78
2024-02-12T06:44:35.417Z,976.78
2024-02-12T06:45:35.349Z,976.85
2024-02-12T06:46:35.345Z,976.81
2024-02-12T06:47:35.392Z,976.81
2024-02-12T06:48:35.383Z,976.86
2024-02-12T06:49:35.314Z,976.86
2024-02-12T06:50:35.346Z,976.90
2024-02-12T06:51:35.292Z,976.92
2024-02-12T06:52:35.308Z,976.88
2024-02-12T06:53:35.386Z,976.88
2024-02-12T06:54:35.274Z,976.92
2024-02-12T06:55:35.283Z,976.93
2024-02-12T06:56:35.356Z,976.91
2024-02-12T06:57:35.278Z,976.95
2024-02-12T06:58:35.246Z,976.96
2024-02-12T06:59:35.377Z,976.98
2024-02-12T07:00:35.355Z,976.97
2024-02-12T07:01:35.239Z,977.02
2024-02-12T07:02:35.280Z,976.99
2024-02-12T07:03:35.271Z,977.01
2024-02-12T07:04:35.240Z,977.00
2024-02-12T07:05:35.290Z,977.08
2024-02-12T07:06:35.261Z,977.13
2024-02-12T07:07:35.179Z,977.12
2024-02-12T07:08:35.217Z,977.15
2024-02-12T07:09:35.157Z,977.17
2024-02-12T07:10:35.167Z,977.19
2024-02-12T07:11:35.345Z,977.19
2024-02-12T07:12:35.131Z,977.19
2024-02-12T07:13:35.137Z,977.15
2024-02-12T07:14:36.147Z,977.22
2024-02-12T07:15:35.130Z,977.26
2024-02-12T07:16:36.105Z,977.23
2024-02-12T07:17:35.199Z,977.32
2024-02-12T07:18:35.143Z,977.34
2024-02-12T07:19:35.084Z,977.37
2024-02-12T07:20:35.135Z,977.39
2024-02-12T07:21:35.087Z,977.43
2024-02-12T07:22:35.054Z,977.48
2024-02-12T07:23:35.083Z,977.37
2024-02-12T07:24:35.072Z,977.35
2024-02-12T07:25:35.058Z,977.47
2024-02-12T07:26:35.115Z,977.49
2024-02-12T07:27:35.015Z,977.35
2024-02-12T07:28:35.002Z,977.39
2024-02-12T07:29:37.006Z,977.42
2024-02-12T07:30:34.999Z,977.39
2024-02-12T07:31:34.999Z,977.45
2024-02-12T07:32:35.000Z,977.46
2024-02-12T07:33:35.096Z,977.46
2024-02-12T07:34:35.014Z,977.46
2024-02-12T07:35:35.011Z,977.46
2024-02-12T07:36:34.948Z,977.54
2024-02-12T07:37:36.466Z,977.53
2024-02-12T07:38:36.030Z,977.63
2024-02-12T07:39:34.943Z,977.69
2024-02-12T07:40:34.916Z,977.63
2024-02-12T07:41:34.984Z,977.59
2024-02-12T07:42:34.895Z,977.65
2024-02-12T07:43:34.936Z,977.68
2024-02-12T07:44:34.997Z,977.68
2024-02-12T07:45:34.874Z,977.73
2024-02-12T07:46:34.864Z,977.74
2024-02-12T07:47:34.990Z,977.77
2024-02-12T07:48:34.889Z,977.76
2024-02-12T07:49:34.899Z,977.73
2024-02-12T07:50:34.859Z,977.72
2024-02-12T07:51:34.829Z,977.79
2024-02-12T07:52:34.847Z,977.76
2024-02-12T07:53:34.883Z,977.80
2024-02-12T07:54:34.873Z,977.79
2024-02-12T07:55:34.797Z,977.83
2024-02-12T07:56:34.822Z,977.80
2024-02-12T07:57:34.835Z,977.86
2024-02-12T07:58:34.795Z,977.88
2024-02-12T07:59:34.783Z,977.89
2024-02-12T08:00:34.800Z,977.98
2024-02-12T08:01:34.759Z,977.90
2024-02-12T08:02:34.829Z,977.98
2024-02-12T08:03:34.778Z,978.04
2024-02-12T08:04:34.730Z,978.04
2024-02-12T08:05:34.740Z,978.00
2024-02-12T08:06:34.752Z,978.01
2024-02-12T08:07:45.785Z,978.08
2024-02-12T08:08:36.736Z,978.05
2024-02-12T08:09:34.827Z,978.09
2024-02-12T08:10:34.685Z,978.09
2024-02-12T08:11:34.687Z,978.08
2024-02-12T08:12:34.694Z,978.11
2024-02-12T08:13:34.665Z,978.12
2024-02-12T08:14:34.787Z,978.15
2024-02-12T08:15:34.659Z,978.15
2024-02-12T08:16:34.640Z,978.14
2024-02-12T08:17:34.718Z,978.19
2024-02-12T08:18:34.750Z,978.18
2024-02-12T08:19:34.765Z,978.25
2024-02-12T08:20:34.737Z,978.24
2024-02-12T08:21:34.693Z,978.25
2024-02-12T08:22:34.622Z,978.30
2024-02-12T08:23:34.640Z,978.32
2024-02-12T08:24:34.579Z,978.23
2024-02-12T08:25:34.567Z,978.28
2024-02-12T08:26:34.655Z,978.29
2024-02-12T08:27:34.560Z,978.29
2024-02-12T08:28:34.548Z,978.33
2024-02-12T08:29:34.673Z,978.39
2024-02-12T08:30:34.535Z,978.34
2024-02-12T08:31:34.544Z,978.37
2024-02-12T08:32:34.630Z,978.41
2024-02-12T08:33:34.552Z,978.39
2024-02-12T08:34:34.540Z,978.38
2024-02-12T08:35:34.606Z,978.37
2024-02-12T08:36:34.517Z,978.45
2024-02-12T08:37:34.476Z,978.41
2024-02-12T08:38:34.551Z,978.40
2024-02-12T08:39:34.460Z,978.43
2024-02-12T08:40:34.479Z,978.42
2024-02-12T08:41:34.499Z,978.48
2024-02-12T08:42:34.456Z,978.55
2024-02-12T08:43:34.441Z,978.50
2024-02-12T08:44:34.475Z,978.55
2024-02-12T08:45:34.448Z,978.52
2024-02-12T08:46:34.415Z,978.55
2024-02-12T08:47:34.585Z,978.52
2024-02-12T08:48:34.417Z,978.53
2024-02-12T08:49:34.434Z,978.55
2024-02-12T08:50:34.452Z,978.56
2024-02-12T08:51:34.382Z,978.61
2024-02-12T08:52:34.365Z,978.60
2024-02-12T08:53:34.427Z,978.65
2024-02-12T08:54:34.375Z,978.66
2024-02-12T08:55:34.365Z,978.65
2024-02-12T08:56:34.450Z,978.62
2024-02-12T08:57:34.321Z,978.66
2024-02-12T08:58:34.323Z,978.61
2024-02-12T08:59:34.365Z,978.68
2024-02-12T09:00:34.345Z,978.68
2024-02-12T09:01:34.291Z,978.65
2024-02-12T09:02:34.299Z,978.79
2024-02-12T09:03:34.329Z,978.68
2024-02-12T09:04:34.289Z,978.85
2024-02-12T09:05:34.335Z,978.78
2024-02-12T09:06:34.344Z,978.73
2024-02-12T09:07:34.243Z,978.70
2024-02-12T09:08:34.323Z,978.79
2024-02-12T09:09:34.273Z,978.77
2024-02-12T09:10:34.213Z,978.75
2024-02-12T09:11:35.255Z,978.80
2024-02-12T09:12:40.203Z,978.79
2024-02-12T09:13:36.193Z,978.77
2024-02-12T09:14:34.267Z,978.89
2024-02-12T09:15:34.174Z,978.89
2024-02-12T09:16:34.178Z,978.82
2024-02-12T09:17:34.215Z,978.86
2024-02-12T09:18:35.250Z,978.80
2024-02-12T09:19:34.207Z,978.87
2024-02-12T09:20:34.183Z,978.83
2024-02-12T09:21:34.136Z,978.84
2024-02-12T09:22:34.131Z,978.87
2024-02-12T09:23:34.534Z,978.86
2024-02-12T09:24:34.105Z,978.88
2024-02-12T09:25:34.097Z,978.89
2024-02-12T09:26:34.134Z,978.90
2024-02-12T09:27:34.099Z,978.90
2024-02-12T09:28:34.093Z,978.91
2024-02-12T09:29:34.073Z,978.97
2024-02-12T09:30:34.059Z,978.93
2024-02-12T09:31:34.055Z,978.94
2024-02-12T09:32:34.113Z,978.98
2024-02-12T09:33:34.151Z,979.03
2024-02-12T09:34:34.205Z,978.97
2024-02-12T09:35:34.033Z,979.07
2024-02-12T09:36:34.006Z,979.09
2024-02-12T09:37:34.038Z,979.12
2024-02-12T09:38:34.156Z,979.17
2024-02-12T09:39:33.994Z,979.14
2024-02-12T09:40:34.053Z,979.24
2024-02-12T09:41:33.988Z,979.14
2024-02-12T09:42:33.992Z,979.23
2024-02-12T09:43:33.970Z,979.19
2024-02-12T09:44:33.971Z,979.26
2024-02-12T09:45:33.949Z,979.30
2024-02-12T09:46:33.935Z,979.21
2024-02-12T09:47:34.129Z,979.21
2024-02-12T09:48:33.961Z,979.28
2024-02-12T09:49:33.912Z,979.27
2024-02-12T09:50:33.996Z,979.32
2024-02-12T09:51:33.917Z,979.32
2024-02-12T09:52:33.914Z,979.36
2024-02-12T09:53:33.939Z,979.33
2024-02-12T09:54:33.873Z,979.31
2024-02-12T09:55:33.878Z,979.31
2024-02-12T09:56:33.961Z,979.25
2024-02-12T09:57:33.909Z,979.33
2024-02-12T09:58:33.855Z,979.33
2024-02-12T09:59:33.873Z,979.29
2024-02-12T10:00:33.909Z,979.37
2024-02-12T10:01:34.611Z,979.37
2024-02-12T10:02:33.845Z,979.37
2024-02-12T10:03:33.837Z,979.36
2024-02-12T10:04:33.793Z,979.39
2024-02-12T10:05:33.898Z,979.40
2024-02-12T10:06:33.915Z,979.42
2024-02-12T10:07:34.512Z,979.41
2024-02-12T10:08:33.770Z,979.44
2024-02-12T10:09:33.749Z,979.43
2024-02-12T10:10:33.747Z,979.43
2024-02-12T10:11:33.840Z,979.45
2024-02-12T10:12:33.731Z,979.38
2024-02-12T10:13:33.713Z,979.51
2024-02-12T10:14:33.777Z,979.55
2024-02-12T10:15:33.700Z,979.51
2024-02-12T10:16:33.712Z,979.49
2024-02-12T10:17:33.756Z,979.54
2024-02-12T10:18:33.696Z,979.56
2024-02-12T10:19:34.185Z,979.55
2024-02-12T10:20:33.707Z,979.58
2024-02-12T10:21:33.680Z,979.47
2024-02-12T10:22:33.641Z,979.57
2024-02-12T10:23:33.667Z,979.57
2024-02-12T10:24:33.632Z,979.59
2024-02-12T10:25:34.423Z,979.59
2024-02-12T10:26:33.650Z,979.69
2024-02-12T10:27:33.611Z,979.62
2024-02-12T10:28:33.600Z,979.57
2024-02-12T10:29:33.618Z,979.62
2024-02-12T10:30:33.622Z,979.66
2024-02-12T10:31:33.587Z,979.56
2024-02-12T10:32:33.700Z,979.62
2024-02-12T10:33:33.665Z,979.67
2024-02-12T10:34:33.602Z,979.61
2024-02-12T10:35:33.609Z,979.60
2024-02-12T10:36:33.569Z,979.64
2024-02-12T10:37:33.561Z,979.71
2024-02-12T10:38:33.537Z,979.61
2024-02-12T10:39:33.550Z,979.74
2024-02-12T10:40:33.537Z,979.73
2024-02-12T10:41:33.658Z,979.69
2024-02-12T10:42:33.498Z,979.75
2024-02-12T10:43:33.489Z,979.79
2024-02-12T10:44:33.560Z,979.74
2024-02-12T10:45:33.513Z,979.77
2024-02-12T10:46:33.471Z,979.76
2024-02-12T10:47:33.490Z,979.72
2024-02-12T10:48:33.535Z,979.85
2024-02-12T10:49:33.470Z,979.85
2024-02-12T10:50:33.495Z,979.86
2024-02-12T10:51:33.432Z,979.85
2024-02-12T10:52:33.420Z,979.89
2024-02-12T10:53:33.478Z,979.96
2024-02-12T10:54:33.431Z,979.91
2024-02-12T10:55:33.410Z,979.97
2024-02-12T10:56:33.459Z,979.96
2024-02-12T10:57:33.370Z,979.96
2024-02-12T10:58:33.396Z,979.90
2024-02-12T10:59:33.406Z,979.90
2024-02-12T11:00:33.442Z,979.90
2024-02-12T11:01:33.389Z,979.97
2024-02-12T11:02:33.433Z,979.91
2024-02-12T11:03:33.358Z,979.91
2024-02-12T11:04:33.457Z,979.91
2024-02-12T11:05:33.325Z,979.89
2024-02-12T11:06:33.351Z,979.88
2024-02-12T11:07:33.313Z,979.94
2024-02-12T11:08:33.342Z,979.92
2024-02-12T11:09:33.281Z,979.93
2024-02-12T11:10:33.276Z,979.99
2024-02-12T11:11:33.348Z,980.01
2024-02-12T11:12:33.277Z,979.98
2024-02-12T11:13:33.278Z,979.99
2024-02-12T11:14:33.299Z,980.04
2024-02-12T11:15:33.241Z,980.01
2024-02-12T11:16:33.274Z,980.01
2024-02-12T11:17:33.397Z,980.11
2024-02-12T11:18:33.254Z,980.09
2024-02-12T11:19:33.225Z,980.10
2024-02-12T11:20:33.222Z,980.17
2024-02-12T11:21:33.238Z,980.10
2024-02-12T11:22:34.210Z,980.08
2024-02-12T11:23:33.197Z,980.08
2024-02-12T11:24:33.164Z,980.14
2024-02-12T11:25:39.058Z,980.06
2024-02-12T11:26:35.171Z,980.13
2024-02-12T11:27:33.180Z,980.16
2024-02-12T11:28:33.135Z,980.07
2024-02-12T11:29:33.135Z,980.11
2024-02-12T11:30:33.128Z,980.03
2024-02-12T11:31:33.112Z,980.21
2024-02-12T11:32:33.167Z,980.22
2024-02-12T11:33:33.232Z,980.23
2024-02-12T11:34:33.128Z,980.16
2024-02-12T11:35:33.133Z,980.17
2024-02-12T11:36:33.738Z,980.20
2024-02-12T11:37:33.081Z,980.19
2024-02-12T11:38:33.102Z,980.19
2024-02-12T11:39:33.047Z,980.22
2024-02-12T11:40:33.038Z,980.17
2024-02-12T11:41:33.076Z,980.20
2024-02-12T11:42:35.300Z,980.14
2024-02-12T11:43:33.008Z,980.25
2024-02-12T11:44:33.082Z,980.23
2024-02-12T11:45:32.995Z,980.22
2024-02-12T11:46:33.015Z,980.21
2024-02-12T11:47:33.085Z,980.22
2024-02-12T11:48:33.048Z,980.20
2024-02-12T11:49:33.042Z,980.14
2024-02-12T11:50:33.065Z,980.20
2024-02-12T11:51:32.977Z,980.19
2024-02-12T11:52:32.942Z,980.27
2024-02-12T11:53:32.969Z,980.19
2024-02-12T11:54:32.931Z,980.23
2024-02-12T11:55:32.952Z,980.18
2024-02-12T11:56:32.955Z,980.23
2024-02-12T11:57:32.918Z,980.21
2024-02-12T11:58:32.893Z,980.28
2024-02-12T11:59:32.903Z,980.23
2024-02-12T12:00:32.928Z,980.30
2024-02-12T12:01:32.869Z,980.24
2024-02-12T12:02:32.924Z,980.28
2024-02-12T12:03:32.871Z,980.28
2024-02-12T12:04:32.904Z,980.29
2024-02-12T12:05:32.909Z,980.28
2024-02-12T12:06:32.886Z,980.35
2024-02-12T12:07:32.812Z,980.34
2024-02-12T12:08:33.868Z,980.29
2024-02-12T12:09:32.872Z,980.33
2024-02-12T12:10:32.798Z,980.33
2024-02-12T12:11:32.829Z,980.32
2024-02-12T12:12:32.785Z,980.25
2024-02-12T12:13:32.796Z,980.31
2024-02-12T12:14:32.843Z,980.27
2024-02-12T12:15:32.899Z,980.32
2024-02-12T12:16:32.749Z,980.32
2024-02-12T12:17:34.265Z,980.31
2024-02-12T12:18:32.988Z,980.29
2024-02-12T12:19:32.954Z,980.31
2024-02-12T12:20:33.811Z,980.23
2024-02-12T12:21:32.718Z,980.28
2024-02-12T12:22:32.701Z,980.25
2024-02-12T12:23:32.760Z,980.24
2024-02-12T12:24:32.709Z,980.25
2024-02-12T12:25:32.684Z,980.24
2024-02-12T12:26:32.815Z,980.28
2024-02-12T12:27:32.675Z,980.22
2024-02-12T12:28:32.670Z,980.21
2024-02-12T12:29:32.702Z,980.29